Search for airport 
image banner adimage banner adimage banner ad
image banner ad

CA027 - Bennett Field

Located in , Canada

ICAO - , IATA -

Data provided by Airmate  

General information

Coordinates: N65°1'60" W124°40'0"
Elevation is feet MSL.
 
View others Airports in Northwest Territories

Operational data

Special qualification required
Current time UTC:
Current local time:
Weather at : CZFN - Tulita ( 45 km )
METAR: CZFN 221600Z 11012G17KT 15SM FEW015 SCT180 BKN250 02/M00 A2935 RMK ST1AC5CC2 ST TR PRESFR SLP948
View NOTAMs / SUP AIP / TFR affecting this airport [VIEW]
Communications frequencies: [VIEW]

Runways:

Airport contact information

Address: Canada

Satellite view of CA027